Time;durP1;ratioP1;P1;durP2;ratioP2;P2;SDS_P1;SDS_P2;PMS_P1;PMS_P2;Temp;Humidity;BMP_temperature;BMP_pressure;BME280_temperature;BME280_humidity;BME280_pressure;Samples;Min_cycle;Max_cycle;Signal;HPM_P1;HPM_P2
2022/10/21 00:01:18;;;;;;;22.50;20.23;;;13.00;99.90;;;;;;5076500;28;20192;-78
2022/10/21 00:03:44;;;;;;;23.57;20.80;;;13.00;99.90;;;;;;5071043;28;20186;-77
2022/10/21 00:06:10;;;;;;;24.40;21.97;;;13.00;99.90;;;;;;5068978;28;20302;-78
2022/10/21 00:08:37;;;;;;;27.73;20.33;;;13.00;99.90;;;;;;5074492;28;20559;-78
2022/10/21 00:11:05;;;;;;;27.87;21.80;;;12.90;99.90;;;;;;5073486;28;20184;-78
2022/10/21 00:13:33;;;;;;;24.00;21.47;;;12.90;99.90;;;;;;5076014;28;20178;-77
2022/10/21 00:16:14;;;;;;;29.43;26.47;;;12.90;99.90;;;;;;5076210;28;20255;-78
2022/10/21 00:18:41;;;;;;;29.50;23.63;;;12.90;99.90;;;;;;5073974;28;20209;-78
2022/10/21 00:21:13;;;;;;;28.63;24.27;;;12.90;99.90;;;;;;5074380;28;20239;-78
2022/10/21 00:23:39;;;;;;;34.67;27.23;;;12.90;99.90;;;;;;5074303;28;20263;-78
2022/10/21 00:26:05;;;;;;;44.33;40.13;;;12.90;99.90;;;;;;5084891;28;20216;-76
2022/10/21 00:28:32;;;;;;;33.07;29.73;;;12.80;99.90;;;;;;5090585;28;20185;-77
2022/10/21 00:30:58;;;;;;;38.73;31.83;;;12.80;99.90;;;;;;5074193;28;20191;-77
2022/10/21 00:33:25;;;;;;;35.13;32.33;;;12.70;99.90;;;;;;5074050;28;20188;-78
2022/10/21 00:35:53;;;;;;;39.93;36.43;;;12.70;99.90;;;;;;5073577;28;20366;-77
2022/10/21 00:38:19;;;;;;;40.97;37.00;;;12.70;99.90;;;;;;5071919;28;20174;-78
2022/10/21 00:40:45;;;;;;;40.07;36.47;;;12.60;99.90;;;;;;5073747;28;20181;-78
2022/10/21 00:43:11;;;;;;;44.57;40.23;;;12.70;99.90;;;;;;5071450;28;20178;-78
2022/10/21 00:45:37;;;;;;;42.77;39.17;;;12.70;99.90;;;;;;5073713;28;20286;-77
2022/10/21 00:48:28;;;;;;;39.10;35.47;;;12.70;99.90;;;;;;5073112;28;20691;-78
2022/10/21 00:51:03;;;;;;;30.20;24.37;;;12.70;99.90;;;;;;5067803;28;20204;-78
2022/10/21 00:53:29;;;;;;;25.90;22.10;;;12.80;99.90;;;;;;5073113;28;20261;-78
2022/10/21 00:56:00;;;;;;;28.43;25.50;;;12.80;99.90;;;;;;5074884;28;20189;-78
2022/10/21 00:58:30;;;;;;;34.70;31.53;;;12.70;99.90;;;;;;5071991;28;20185;-78
2022/10/21 01:00:57;;;;;;;50.90;46.60;;;12.70;99.90;;;;;;5073776;28;20330;-78
2022/10/21 01:03:25;;;;;;;28.80;25.40;;;12.70;99.90;;;;;;5074987;28;20178;-77
2022/10/21 01:05:52;;;;;;;33.57;29.97;;;12.70;99.90;;;;;;5077025;28;20559;-77
2022/10/21 01:08:19;;;;;;;38.07;34.53;;;12.70;99.90;;;;;;5079011;28;20268;-78
2022/10/21 01:10:45;;;;;;;41.13;37.33;;;12.80;99.90;;;;;;5079961;28;20209;-78
2022/10/21 01:13:29;;;;;;;46.93;43.33;;;12.80;99.90;;;;;;5074631;28;20323;-78
2022/10/21 01:16:26;;;;;;;42.33;38.73;;;12.90;99.90;;;;;;5073624;28;20205;-77
2022/10/21 01:19:14;;;;;;;42.30;38.33;;;12.80;99.90;;;;;;5065781;28;20194;-78
2022/10/21 01:21:57;;;;;;;34.03;30.43;;;12.80;99.90;;;;;;5072834;28;20777;-79
2022/10/21 01:24:47;;;;;;;58.50;53.63;;;12.80;99.90;;;;;;5072438;28;20209;-77
2022/10/21 01:27:37;;;;;;;65.23;60.50;;;12.90;99.90;;;;;;5079812;28;20228;-78
2022/10/21 01:30:41;;;;;;;57.97;53.80;;;12.90;99.90;;;;;;5073324;28;20216;-78
2022/10/21 01:33:13;;;;;;;91.33;85.70;;;12.80;99.90;;;;;;5071199;28;20319;-76
2022/10/21 01:36:05;;;;;;;47.90;43.70;;;12.80;99.90;;;;;;5071696;28;20209;-78
2022/10/21 01:39:01;;;;;;;33.70;29.00;;;12.70;99.90;;;;;;5070753;28;20182;-78
2022/10/21 01:41:34;;;;;;;25.50;15.07;;;12.70;99.90;;;;;;5077109;28;20212;-76
2022/10/21 01:44:38;;;;;;;25.00;18.00;;;12.60;99.90;;;;;;5087230;28;20277;-76
2022/10/21 01:47:16;;;;;;;22.53;16.13;;;12.60;99.90;;;;;;5071118;28;20220;-75
2022/10/21 01:49:51;;;;;;;19.60;17.60;;;12.60;99.90;;;;;;5071804;28;20720;-76
2022/10/21 01:52:17;;;;;;;32.53;28.43;;;12.70;99.90;;;;;;5071862;28;20177;-77
2022/10/21 01:54:49;;;;;;;32.83;29.90;;;12.60;99.90;;;;;;5070601;28;20200;-76
2022/10/21 01:57:18;;;;;;;39.47;35.77;;;12.60;99.90;;;;;;5071316;28;20180;-77
2022/10/21 01:59:46;;;;;;;58.70;54.23;;;12.70;99.90;;;;;;5070212;28;20650;-76
2022/10/21 02:02:14;;;;;;;70.47;65.87;;;12.70;99.90;;;;;;5073301;28;20185;-77
2022/10/21 02:04:43;;;;;;;85.53;79.43;;;12.70;99.90;;;;;;5073590;28;20276;-77
2022/10/21 02:07:09;;;;;;;91.57;85.13;;;12.80;99.90;;;;;;5081235;28;20189;-79
2022/10/21 02:09:35;;;;;;;46.23;42.50;;;12.80;99.90;;;;;;5074364;28;20209;-75
2022/10/21 02:12:03;;;;;;;35.50;32.33;;;12.80;99.90;;;;;;5071994;28;20178;-77
2022/10/21 02:14:46;;;;;;;29.87;26.53;;;12.80;99.90;;;;;;5071815;28;20246;-77
2022/10/21 02:17:16;;;;;;;26.23;23.50;;;12.90;99.90;;;;;;5072461;28;20213;-75
2022/10/21 02:19:43;;;;;;;19.33;16.83;;;12.90;99.90;;;;;;5074400;28;20186;-76
2022/10/21 02:22:11;;;;;;;18.87;15.90;;;13.00;99.90;;;;;;5070553;28;20239;-77
2022/10/21 02:25:06;;;;;;;22.43;20.07;;;13.00;99.90;;;;;;5071399;28;20205;-76
2022/10/21 02:27:32;;;;;;;24.27;21.00;;;13.00;99.90;;;;;;5074245;28;20671;-77
2022/10/21 02:29:59;;;;;;;28.70;20.20;;;13.00;99.90;;;;;;5073573;28;20237;-77
2022/10/21 02:32:46;;;;;;;25.07;16.83;;;13.10;99.90;;;;;;5071654;28;20646;-76
2022/10/21 02:35:21;;;;;;;26.00;23.43;;;13.10;99.90;;;;;;5071596;28;20211;-77
2022/10/21 02:37:56;;;;;;;23.83;17.60;;;13.00;99.90;;;;;;5071501;28;20185;-76
2022/10/21 02:40:25;;;;;;;23.77;17.23;;;13.00;99.90;;;;;;5071165;28;20370;-77
2022/10/21 02:42:56;;;;;;;20.37;18.00;;;12.90;99.90;;;;;;5070893;28;20217;-77
2022/10/21 02:45:22;;;;;;;37.07;33.37;;;12.80;99.90;;;;;;5072973;28;20212;-76
2022/10/21 02:47:49;;;;;;;66.70;60.93;;;12.80;99.90;;;;;;5074517;28;20268;-77
2022/10/21 02:50:16;;;;;;;66.10;61.20;;;12.80;99.90;;;;;;5072131;28;20252;-78
2022/10/21 02:52:42;;;;;;;69.73;64.73;;;12.80;99.90;;;;;;5072676;28;20265;-78
2022/10/21 02:55:08;;;;;;;57.10;52.77;;;12.80;99.90;;;;;;5072401;28;20229;-78
2022/10/21 02:57:34;;;;;;;75.60;70.43;;;12.70;99.90;;;;;;5089544;28;20161;-76
2022/10/21 03:00:00;;;;;;;61.80;56.77;;;12.80;99.90;;;;;;5096218;28;20235;-76
2022/10/21 03:02:25;;;;;;;48.33;44.43;;;12.80;99.90;;;;;;5089802;28;20174;-77
2022/10/21 03:04:51;;;;;;;58.03;54.10;;;12.80;99.90;;;;;;5080506;28;20252;-78
2022/10/21 03:07:17;;;;;;;81.47;76.03;;;12.70;99.90;;;;;;5070728;28;20270;-78
2022/10/21 03:09:43;;;;;;;93.73;87.70;;;12.70;99.90;;;;;;5070699;28;20227;-78
2022/10/21 03:12:08;;;;;;;103.13;96.50;;;12.70;99.90;;;;;;5070779;28;20170;-78
2022/10/21 03:14:34;;;;;;;56.17;51.50;;;12.70;99.90;;;;;;5071507;28;20208;-78
2022/10/21 03:17:00;;;;;;;41.90;37.57;;;12.60;99.90;;;;;;5071756;28;20230;-78
2022/10/21 03:19:25;;;;;;;42.90;38.67;;;12.60;99.90;;;;;;5071555;28;20742;-77
2022/10/21 03:21:51;;;;;;;45.20;40.87;;;12.60;99.90;;;;;;5075399;28;20182;-77
2022/10/21 03:24:17;;;;;;;48.77;45.23;;;12.60;99.90;;;;;;5073573;28;20201;-77
2022/10/21 03:26:44;;;;;;;38.97;35.60;;;12.60;99.90;;;;;;5072705;28;20174;-75
2022/10/21 03:29:10;;;;;;;31.40;28.43;;;12.60;99.90;;;;;;5073695;28;20225;-76
2022/10/21 03:31:35;;;;;;;44.20;40.33;;;12.60;99.90;;;;;;5074963;28;20177;-78
2022/10/21 03:34:01;;;;;;;42.40;39.17;;;12.60;99.90;;;;;;5070976;28;20182;-77
2022/10/21 03:36:27;;;;;;;32.10;29.03;;;12.60;99.90;;;;;;5074078;22;20253;-78
2022/10/21 03:38:53;;;;;;;37.77;34.17;;;12.50;99.90;;;;;;5050732;28;20248;-77
2022/10/21 03:41:18;;;;;;;30.73;27.70;;;12.50;99.90;;;;;;5051872;28;20227;-78
2022/10/21 03:43:44;;;;;;;43.10;38.97;;;12.40;99.90;;;;;;5054871;28;20194;-78
2022/10/21 03:46:10;;;;;;;35.17;32.40;;;12.40;99.90;;;;;;5054742;28;20202;-78
2022/10/21 03:48:36;;;;;;;27.83;25.33;;;12.40;99.90;;;;;;5040732;28;20191;-78
2022/10/21 03:51:02;;;;;;;25.83;22.73;;;12.40;99.90;;;;;;5044922;28;20186;-77
2022/10/21 03:53:27;;;;;;;24.83;20.93;;;12.40;99.90;;;;;;5035588;28;20257;-78
2022/10/21 03:55:53;;;;;;;31.63;25.10;;;12.40;99.90;;;;;;5036353;28;20210;-77
2022/10/21 03:58:19;;;;;;;26.00;23.23;;;12.50;99.90;;;;;;5035021;28;20186;-77
2022/10/21 04:00:45;;;;;;;27.20;24.30;;;12.50;99.90;;;;;;5035602;28;20244;-78
2022/10/21 04:03:10;;;;;;;28.40;25.70;;;12.50;99.90;;;;;;5037625;28;20190;-78
2022/10/21 04:05:36;;;;;;;33.27;28.80;;;12.60;99.90;;;;;;5023494;28;20215;-78
2022/10/21 04:08:02;;;;;;;35.60;32.73;;;12.60;99.90;;;;;;5037135;28;20297;-78
2022/10/21 04:10:28;;;;;;;55.23;50.70;;;12.60;99.90;;;;;;5035101;28;20203;-78
2022/10/21 04:12:54;;;;;;;44.03;40.33;;;12.70;99.90;;;;;;5034225;28;20194;-78
2022/10/21 04:15:20;;;;;;;51.90;47.93;;;12.70;99.90;;;;;;5035304;28;20668;-79
2022/10/21 04:17:46;;;;;;;72.23;67.67;;;12.70;99.90;;;;;;5043179;28;20179;-78
2022/10/21 04:20:12;;;;;;;61.67;57.03;;;12.70;99.90;;;;;;5034433;28;20711;-77
2022/10/21 04:22:38;;;;;;;39.57;35.77;;;12.70;99.90;;;;;;5033726;28;20191;-78
2022/10/21 04:25:04;;;;;;;40.67;36.83;;;12.70;99.90;;;;;;5031990;28;20264;-76
2022/10/21 04:27:30;;;;;;;50.87;46.67;;;12.70;99.90;;;;;;5031176;28;20195;-78
2022/10/21 04:29:56;;;;;;;55.80;51.27;;;12.70;99.90;;;;;;5033861;28;20207;-79
2022/10/21 04:32:21;;;;;;;48.17;44.57;;;12.70;99.90;;;;;;5050065;28;20239;-78
2022/10/21 04:34:47;;;;;;;65.07;60.47;;;12.70;99.90;;;;;;5053962;28;20210;-77
2022/10/21 04:37:13;;;;;;;59.73;55.43;;;12.70;99.90;;;;;;5039290;28;20195;-77
2022/10/21 04:39:39;;;;;;;72.87;67.67;;;12.70;99.90;;;;;;5031955;28;20532;-73
2022/10/21 04:42:05;;;;;;;58.80;53.87;;;12.80;99.90;;;;;;5031093;28;20236;-73
2022/10/21 04:44:31;;;;;;;49.37;45.07;;;12.80;99.90;;;;;;5025730;28;20194;-73
2022/10/21 04:46:56;;;;;;;51.33;47.03;;;12.90;99.90;;;;;;5029777;28;20230;-73
2022/10/21 04:49:22;;;;;;;43.17;38.53;;;12.90;99.90;;;;;;5030227;28;20214;-73
2022/10/21 04:51:48;;;;;;;35.70;32.50;;;12.90;99.90;;;;;;5031906;28;20179;-72
2022/10/21 04:54:14;;;;;;;59.90;55.43;;;12.90;99.90;;;;;;5036250;28;20175;-74
2022/10/21 04:56:40;;;;;;;98.30;92.30;;;12.90;99.90;;;;;;5037729;28;20667;-77
2022/10/21 04:59:06;;;;;;;97.13;90.70;;;12.90;99.90;;;;;;5034473;28;20179;-77
2022/10/21 05:01:32;;;;;;;62.47;57.30;;;12.90;99.90;;;;;;5040873;28;20186;-78
2022/10/21 05:03:58;;;;;;;56.60;52.53;;;12.90;99.90;;;;;;5042134;28;20195;-77
2022/10/21 05:06:24;;;;;;;67.97;63.03;;;12.90;99.90;;;;;;5033648;28;20199;-78
2022/10/21 05:08:49;;;;;;;55.63;51.47;;;12.90;99.90;;;;;;5032442;28;20187;-77
2022/10/21 05:11:15;;;;;;;49.77;45.87;;;12.90;99.90;;;;;;5033138;28;20179;-77
2022/10/21 05:13:41;;;;;;;28.00;25.17;;;12.90;99.90;;;;;;5031679;28;20610;-77
2022/10/21 05:16:07;;;;;;;26.57;24.07;;;12.90;99.90;;;;;;5032166;28;20195;-77
2022/10/21 05:18:32;;;;;;;35.37;32.30;;;12.90;99.90;;;;;;5032335;28;20229;-76
2022/10/21 05:20:58;;;;;;;67.33;62.37;;;12.90;99.90;;;;;;5032451;28;20183;-76
2022/10/21 05:23:25;;;;;;;81.53;75.30;;;13.00;99.90;;;;;;5038861;28;20167;-75
2022/10/21 05:25:50;;;;;;;76.77;71.57;;;12.90;99.90;;;;;;5052756;28;20199;-77
2022/10/21 05:28:17;;;;;;;74.77;69.43;;;12.90;99.90;;;;;;5050751;28;20179;-75
2022/10/21 05:30:43;;;;;;;53.70;49.40;;;12.90;99.90;;;;;;5051834;28;20210;-77
2022/10/21 05:33:09;;;;;;;51.67;47.33;;;12.90;99.90;;;;;;5053176;28;20182;-77
2022/10/21 05:35:35;;;;;;;27.10;24.27;;;12.90;99.90;;;;;;5052690;28;20214;-77
2022/10/21 05:38:01;;;;;;;26.83;24.10;;;12.90;99.90;;;;;;5049238;28;20179;-76
2022/10/21 05:40:27;;;;;;;28.40;25.47;;;12.90;99.90;;;;;;5044339;28;20231;-77
2022/10/21 05:42:53;;;;;;;23.50;18.53;;;13.00;99.90;;;;;;5053418;28;20204;-77
2022/10/21 05:45:19;;;;;;;26.97;24.13;;;13.00;99.90;;;;;;5052189;28;20202;-76
2022/10/21 05:47:44;;;;;;;45.57;42.37;;;13.00;99.90;;;;;;5050279;28;20189;-77
2022/10/21 05:50:11;;;;;;;51.97;47.77;;;13.00;99.90;;;;;;5053423;28;20206;-77
2022/10/21 05:52:38;;;;;;;81.83;76.33;;;13.00;99.90;;;;;;5044371;28;20258;-77
2022/10/21 05:55:05;;;;;;;64.00;59.17;;;13.00;99.90;;;;;;5033488;28;20286;-77
2022/10/21 05:57:32;;;;;;;73.47;68.00;;;13.00;99.90;;;;;;5032279;28;20648;-77
2022/10/21 05:59:58;;;;;;;65.50;60.63;;;13.10;99.90;;;;;;5031223;28;20185;-77
2022/10/21 06:02:24;;;;;;;60.43;56.27;;;13.10;99.90;;;;;;5030578;28;20175;-76
2022/10/21 06:04:50;;;;;;;29.57;20.07;;;13.10;99.90;;;;;;5031896;28;20230;-77
2022/10/21 06:07:16;;;;;;;27.70;19.73;;;13.10;99.90;;;;;;5031204;28;20179;-76
2022/10/21 06:09:41;;;;;;;25.83;21.27;;;13.10;99.90;;;;;;5031983;28;20762;-78
2022/10/21 06:12:08;;;;;;;24.57;21.97;;;13.10;99.90;;;;;;5032058;28;20225;-76
2022/10/21 06:14:35;;;;;;;26.57;22.57;;;13.10;99.90;;;;;;5030970;28;20195;-77
2022/10/21 06:17:04;;;;;;;35.17;30.17;;;13.20;99.90;;;;;;5032310;28;20175;-76
2022/10/21 06:19:30;;;;;;;28.50;24.83;;;13.20;99.90;;;;;;5031113;28;20178;-76
2022/10/21 06:21:57;;;;;;;30.53;24.20;;;13.20;99.90;;;;;;5041920;28;20194;-76
2022/10/21 06:24:24;;;;;;;25.33;20.10;;;13.20;99.90;;;;;;5051492;28;20612;-78
2022/10/21 06:26:50;;;;;;;26.43;19.33;;;13.20;99.90;;;;;;5052466;28;20194;-77
2022/10/21 06:29:16;;;;;;;23.67;16.13;;;13.20;99.90;;;;;;5052769;28;20217;-77
2022/10/21 06:31:43;;;;;;;30.67;27.43;;;13.20;99.90;;;;;;5039768;28;20675;-78
2022/10/21 06:34:09;;;;;;;43.83;40.30;;;13.20;99.90;;;;;;5021653;28;20214;-76
2022/10/21 06:36:37;;;;;;;44.57;40.73;;;13.20;99.90;;;;;;5042929;28;20677;-78
2022/10/21 06:39:07;;;;;;;28.90;21.90;;;13.20;99.90;;;;;;5028783;28;20198;-75
2022/10/21 06:41:33;;;;;;;23.50;19.63;;;13.30;99.90;;;;;;5029526;28;20193;-79
2022/10/21 06:43:59;;;;;;;28.47;20.33;;;13.30;99.90;;;;;;5037805;28;20179;-77
2022/10/21 06:46:25;;;;;;;46.10;41.20;;;13.30;99.90;;;;;;5046825;28;20714;-77
2022/10/21 06:48:51;;;;;;;63.47;57.77;;;13.30;99.90;;;;;;5045621;28;20167;-77
2022/10/21 06:51:21;;;;;;;59.60;55.07;;;13.30;99.90;;;;;;5054624;28;20178;-78
2022/10/21 06:53:52;;;;;;;69.30;64.50;;;13.30;99.90;;;;;;5052459;28;20190;-77
2022/10/21 06:56:18;;;;;;;47.17;42.97;;;13.30;99.90;;;;;;5053110;28;20552;-78
2022/10/21 06:58:46;;;;;;;54.33;50.00;;;13.40;99.90;;;;;;5052072;28;20277;-78
2022/10/21 07:01:15;;;;;;;90.43;84.37;;;13.40;99.90;;;;;;5052945;28;20233;-78
2022/10/21 07:03:41;;;;;;;104.00;97.67;;;13.40;99.90;;;;;;5053321;28;20228;-79
2022/10/21 07:06:08;;;;;;;82.00;75.80;;;13.40;99.90;;;;;;5027881;28;20203;-78
2022/10/21 07:08:34;;;;;;;72.77;67.80;;;13.40;99.90;;;;;;5033548;28;20175;-78
2022/10/21 07:11:01;;;;;;;64.17;59.50;;;13.40;99.90;;;;;;5047989;28;20187;-77
2022/10/21 07:13:27;;;;;;;53.37;49.67;;;13.50;99.90;;;;;;5018388;28;20723;-78
2022/10/21 07:16:10;;;;;;;37.93;34.83;;;13.50;99.90;;;;;;5034025;28;20202;-78
2022/10/21 07:18:36;;;;;;;30.57;23.17;;;13.50;99.90;;;;;;5039072;28;20266;-78
2022/10/21 07:21:04;;;;;;;28.53;25.97;;;13.60;99.90;;;;;;5060421;28;20713;-77
2022/10/21 07:23:30;;;;;;;46.73;42.63;;;13.60;99.90;;;;;;5073515;28;20236;-79
2022/10/21 07:25:56;;;;;;;34.57;31.13;;;13.60;99.90;;;;;;5058960;28;20198;-79
2022/10/21 07:28:21;;;;;;;65.57;60.70;;;13.60;99.90;;;;;;5059871;28;20659;-79
2022/10/21 07:30:47;;;;;;;99.93;92.87;;;13.60;99.90;;;;;;5060053;28;20198;-79
2022/10/21 07:33:14;;;;;;;86.83;81.03;;;13.60;99.90;;;;;;5058871;28;20254;-79
2022/10/21 07:35:40;;;;;;;95.40;89.10;;;13.60;99.90;;;;;;5032020;28;20261;-78
2022/10/21 07:38:06;;;;;;;69.03;64.00;;;13.70;99.90;;;;;;5018175;28;20253;-78
2022/10/21 07:40:37;;;;;;;50.23;46.20;;;13.70;99.90;;;;;;5020833;28;20183;-84
2022/10/21 07:43:03;;;;;;;47.83;43.50;;;13.70;99.90;;;;;;5019266;28;20194;-79
2022/10/21 07:45:29;;;;;;;51.40;47.00;;;13.80;99.90;;;;;;5018535;28;20195;-78
2022/10/21 07:47:55;;;;;;;62.13;57.97;;;13.80;99.90;;;;;;5031671;28;20209;-79
2022/10/21 07:50:20;;;;;;;57.13;52.70;;;13.70;99.90;;;;;;5058133;28;20241;-79
2022/10/21 07:52:46;;;;;;;32.23;29.37;;;13.70;99.90;;;;;;5057622;28;20214;-79
2022/10/21 07:55:12;;;;;;;44.10;40.03;;;13.60;99.90;;;;;;5059398;28;20222;-79
2022/10/21 07:57:39;;;;;;;90.57;83.67;;;13.60;99.90;;;;;;5059767;28;20184;-79
2022/10/21 08:00:06;;;;;;;102.80;96.47;;;13.70;99.90;;;;;;5057716;28;20182;-78
2022/10/21 08:02:31;;;;;;;80.50;74.97;;;13.70;99.90;;;;;;5053752;28;20179;-78
2022/10/21 08:04:57;;;;;;;109.37;102.37;;;13.70;99.90;;;;;;5038046;28;20246;-78
2022/10/21 08:07:23;;;;;;;122.80;114.47;;;13.80;99.90;;;;;;5038637;28;20187;-78
2022/10/21 08:09:49;;;;;;;91.83;85.53;;;13.90;99.90;;;;;;5039819;28;20213;-79
2022/10/21 08:12:15;;;;;;;106.53;99.50;;;13.90;99.90;;;;;;5039518;28;20552;-78
2022/10/21 08:14:40;;;;;;;104.00;96.63;;;14.00;99.90;;;;;;5044918;28;20207;-77
2022/10/21 08:17:06;;;;;;;100.97;94.00;;;14.00;99.90;;;;;;5054511;28;20170;-78
2022/10/21 08:19:32;;;;;;;68.47;63.60;;;14.00;99.90;;;;;;5059837;28;20196;-79
2022/10/21 08:21:58;;;;;;;23.43;18.70;;;14.10;99.90;;;;;;5057494;28;20185;-78
2022/10/21 08:24:24;;;;;;;25.07;22.73;;;14.10;99.90;;;;;;5049398;28;20175;-79
2022/10/21 08:26:50;;;;;;;55.10;50.23;;;14.20;99.90;;;;;;5037529;28;20419;-79
2022/10/21 08:29:16;;;;;;;114.43;107.47;;;14.20;99.90;;;;;;5035317;28;20223;-78
2022/10/21 08:31:42;;;;;;;44.83;41.70;;;14.20;99.90;;;;;;5057106;28;20564;-80
2022/10/21 08:34:09;;;;;;;39.10;35.47;;;14.30;99.90;;;;;;5058862;28;20178;-77
2022/10/21 08:36:36;;;;;;;29.00;26.67;;;14.40;99.90;;;;;;5054571;28;20210;-79
2022/10/21 08:39:03;;;;;;;24.43;22.23;;;14.40;99.90;;;;;;5057054;28;20187;-79
2022/10/21 08:41:29;;;;;;;28.33;25.70;;;14.50;99.90;;;;;;5061736;28;20182;-79
2022/10/21 08:44:25;;;;;;;25.13;22.90;;;14.50;99.90;;;;;;5060040;28;20177;-78
2022/10/21 08:47:13;;;;;;;23.73;18.87;;;14.60;99.90;;;;;;5047418;28;20187;-78
2022/10/21 08:49:55;;;;;;;25.10;22.93;;;14.70;99.90;;;;;;5036164;28;20623;-79
2022/10/21 08:52:43;;;;;;;24.43;21.83;;;14.80;99.90;;;;;;5036213;28;20670;-79
2022/10/21 08:55:18;;;;;;;25.47;23.17;;;14.80;99.90;;;;;;5042705;28;20214;-78
2022/10/21 08:57:46;;;;;;;25.70;23.53;;;14.80;99.90;;;;;;5036026;28;20273;-80
2022/10/21 09:00:17;;;;;;;26.53;24.27;;;14.90;99.90;;;;;;5036165;28;20179;-80
2022/10/21 09:03:09;;;;;;;34.80;31.37;;;15.00;99.90;;;;;;5068255;28;20213;-80
2022/10/21 09:05:56;;;;;;;37.17;34.13;;;15.00;99.90;;;;;;5067050;28;20208;-80
2022/10/21 09:08:37;;;;;;;34.50;31.67;;;15.00;99.90;;;;;;5044528;28;20202;-79
2022/10/21 09:11:19;;;;;;;30.63;27.63;;;15.00;99.90;;;;;;5051096;28;20224;-81
2022/10/21 09:14:01;;;;;;;25.77;23.10;;;15.00;99.90;;;;;;5052336;28;20230;-81
2022/10/21 09:16:59;;;;;;;72.93;67.13;;;15.00;99.90;;;;;;5052821;28;20226;-79
2022/10/21 09:20:26;;;;;;;123.63;116.43;;;15.00;99.90;;;;;;5028684;28;20188;-79
2022/10/21 09:22:54;;;;;;;203.77;191.50;;;15.10;99.90;;;;;;5029224;28;20198;-81
2022/10/21 09:25:32;;;;;;;249.60;235.30;;;15.20;99.90;;;;;;5048976;28;20257;-81
2022/10/21 09:27:59;;;;;;;291.30;273.67;;;15.30;99.90;;;;;;5040523;28;20187;-79
2022/10/21 09:30:25;;;;;;;236.93;223.30;;;15.30;99.90;;;;;;5060336;28;20206;-78
2022/10/21 09:32:57;;;;;;;239.83;226.20;;;15.30;99.90;;;;;;5066034;28;20193;-78
2022/10/21 09:35:23;;;;;;;248.07;234.27;;;15.30;99.90;;;;;;5081703;22;20244;-80
2022/10/21 09:38:04;;;;;;;246.63;232.60;;;15.30;99.90;;;;;;5072473;28;20560;-79
2022/10/21 09:40:30;;;;;;;181.77;170.90;;;15.30;99.90;;;;;;5085115;28;20185;-79
2022/10/21 09:42:58;;;;;;;28.10;25.87;;;15.30;99.90;;;;;;5083928;28;20182;-79
2022/10/21 09:45:32;;;;;;;52.57;48.73;;;15.40;99.90;;;;;;5089219;28;20197;-78
2022/10/21 09:48:18;;;;;;;40.80;37.73;;;15.40;99.90;;;;;;5075645;28;20180;-79
2022/10/21 09:50:47;;;;;;;49.40;45.90;;;15.40;99.90;;;;;;5089378;28;20209;-79
2022/10/21 09:53:32;;;;;;;37.93;35.03;;;15.50;99.90;;;;;;5078061;28;20181;-79
2022/10/21 09:56:02;;;;;;;82.60;76.27;;;15.60;99.90;;;;;;5078505;28;20205;-79
2022/10/21 09:58:44;;;;;;;111.77;105.20;;;15.70;99.90;;;;;;5058009;28;20178;-79
2022/10/21 10:01:21;;;;;;;183.83;173.53;;;15.90;99.90;;;;;;5054026;28;20643;-81
2022/10/21 10:03:50;;;;;;;163.83;154.20;;;16.10;99.90;;;;;;5053869;28;20670;-80
2022/10/21 10:06:34;;;;;;;152.10;143.27;;;16.20;99.90;;;;;;5054876;28;20214;-80
2022/10/21 10:09:14;;;;;;;194.87;183.17;;;16.30;99.90;;;;;;5053172;28;20189;-78
2022/10/21 10:12:12;;;;;;;141.10;132.53;;;16.30;99.90;;;;;;5056729;28;20173;-80
2022/10/21 10:14:43;;;;;;;38.60;35.40;;;16.30;99.90;;;;;;5045193;28;20194;-81
2022/10/21 10:17:27;;;;;;;156.57;146.77;;;16.20;99.90;;;;;;5068790;28;20178;-80
2022/10/21 10:20:03;;;;;;;180.40;169.03;;;16.30;99.90;;;;;;5053930;28;20190;-80
2022/10/21 10:22:30;;;;;;;188.47;177.07;;;16.40;99.90;;;;;;5050383;28;20186;-78
2022/10/21 10:25:23;;;;;;;163.37;153.57;;;16.50;99.90;;;;;;5051111;28;20662;-77
2022/10/21 10:28:00;;;;;;;107.03;100.20;;;16.50;99.90;;;;;;5081295;28;20188;-80
2022/10/21 10:30:30;;;;;;;120.50;112.80;;;16.50;99.90;;;;;;5073261;28;20208;-80
2022/10/21 10:32:56;;;;;;;136.60;128.40;;;16.50;99.90;;;;;;5072434;28;20180;-80
2022/10/21 10:35:29;;;;;;;29.60;26.60;;;16.50;99.90;;;;;;5072340;28;20269;-83
2022/10/21 10:38:01;;;;;;;19.23;17.23;;;16.60;99.90;;;;;;5072457;28;20225;-81
2022/10/21 10:40:40;;;;;;;18.50;16.67;;;16.70;99.90;;;;;;5071225;28;20181;-81
2022/10/21 10:43:20;;;;;;;32.90;30.27;;;16.80;99.90;;;;;;5079809;28;20216;-79
2022/10/21 10:45:55;;;;;;;23.40;20.10;;;16.90;99.90;;;;;;5072038;28;20205;-79
2022/10/21 10:48:26;;;;;;;14.67;13.10;;;17.00;99.90;;;;;;5071118;28;20186;-79
2022/10/21 10:50:52;;;;;;;17.73;14.37;;;17.10;99.90;;;;;;5069799;28;20205;-79
2022/10/21 10:53:46;;;;;;;18.33;16.53;;;17.20;99.90;;;;;;5072349;28;20180;-80
2022/10/21 10:56:40;;;;;;;16.23;14.63;;;17.20;99.90;;;;;;5058590;28;20210;-80
2022/10/21 10:59:21;;;;;;;31.80;28.83;;;17.20;99.90;;;;;;5052023;28;20222;-79
2022/10/21 11:02:06;;;;;;;37.77;35.20;;;17.20;99.90;;;;;;5050661;28;20277;-81
2022/10/21 11:04:40;;;;;;;20.30;18.27;;;17.20;99.90;;;;;;5051209;28;20186;-78
2022/10/21 11:07:14;;;;;;;15.53;10.33;;;17.10;99.90;;;;;;5057870;28;20205;-78
2022/10/21 11:09:40;;;;;;;18.57;15.20;;;17.20;99.90;;;;;;5078462;28;20204;-78
2022/10/21 11:12:19;;;;;;;23.13;21.23;;;17.30;99.90;;;;;;5077117;28;20176;-81
2022/10/21 11:14:52;;;;;;;63.17;59.27;;;17.40;99.90;;;;;;5072290;28;20580;-80
2022/10/21 11:17:21;;;;;;;109.53;102.97;;;17.40;99.90;;;;;;5070913;28;20192;-80
2022/10/21 11:20:04;;;;;;;177.20;167.13;;;17.50;99.90;;;;;;5055101;28;20273;-82
2022/10/21 11:22:48;;;;;;;225.00;212.07;;;17.60;99.90;;;;;;5055830;28;20278;-82
2022/10/21 11:25:33;;;;;;;225.17;212.63;;;17.80;99.90;;;;;;5052929;28;20217;-82
2022/10/21 11:28:04;;;;;;;183.70;173.13;;;18.00;99.90;;;;;;5050045;28;20186;-77
2022/10/21 11:30:38;;;;;;;72.23;67.47;;;18.10;99.90;;;;;;5054958;28;20675;-79
2022/10/21 11:33:46;;;;;;;209.13;197.47;;;18.20;99.90;;;;;;5052654;28;20174;-79
2022/10/21 11:36:16;;;;;;;127.60;120.30;;;18.30;99.90;;;;;;4998842;28;20217;-79
2022/10/21 11:39:03;;;;;;;54.73;50.80;;;18.40;99.90;;;;;;5055306;28;20233;-78
2022/10/21 11:41:58;;;;;;;32.40;29.97;;;18.50;99.90;;;;;;5054832;28;20186;-77
2022/10/21 11:44:42;;;;;;;32.67;30.23;;;18.60;99.90;;;;;;5056230;28;20186;-78
2022/10/21 11:47:33;;;;;;;29.83;27.57;;;18.70;99.90;;;;;;5060118;28;20240;-78
2022/10/21 11:50:29;;;;;;;27.27;25.40;;;18.80;99.90;;;;;;5057088;28;20213;-78
2022/10/21 11:53:13;;;;;;;37.63;34.83;;;18.90;99.90;;;;;;5058652;28;20187;-79
2022/10/21 11:55:42;;;;;;;42.13;39.30;;;19.10;99.90;;;;;;5037930;28;20287;-78
2022/10/21 11:58:29;;;;;;;28.17;26.23;;;19.40;99.90;;;;;;5034540;28;20225;-78
2022/10/21 12:01:13;;;;;;;9.57;8.27;;;19.90;99.90;;;;;;5034255;28;20232;-78
2022/10/21 12:04:05;;;;;;;45.00;42.53;;;20.70;99.90;;;;;;5038313;28;20214;-78
2022/10/21 12:06:38;;;;;;;24.23;22.53;;;21.80;99.90;;;;;;5055570;28;20202;-77
2022/10/21 12:09:29;;;;;;;86.55;81.88;;;23.20;99.90;;;;;;5075701;28;20243;-77
2022/10/21 12:12:09;;;;;;;34.37;32.33;;;24.10;99.90;;;;;;5036312;28;20193;-78
2022/10/21 12:15:10;;;;;;;9.63;8.82;;;23.90;99.90;;;;;;5078464;28;20205;-78
2022/10/21 12:17:36;;;;;;;13.75;12.40;;;23.20;99.90;;;;;;5069828;28;20193;-78
2022/10/21 12:20:13;;;;;;;12.88;12.07;;;22.40;99.90;;;;;;5077062;28;20173;-80
2022/10/21 12:22:39;;;;;;;19.63;18.25;;;22.10;99.90;;;;;;5054985;28;20263;-80
2022/10/21 12:25:24;;;;;;;12.68;12.05;;;21.70;99.90;;;;;;5053461;28;20581;-79
2022/10/21 12:28:15;;;;;;;25.43;23.93;;;21.00;99.90;;;;;;5053061;28;20186;-79
2022/10/21 12:30:58;;;;;;;45.57;43.27;;;20.50;99.90;;;;;;5053116;28;20268;-74
2022/10/21 12:33:36;;;;;;;6.07;5.63;;;20.10;99.90;;;;;;5053346;28;20252;-74
2022/10/21 12:36:18;;;;;;;52.20;49.33;;;19.70;99.90;;;;;;5061870;28;20258;-74
2022/10/21 12:38:48;;;;;;;169.03;160.50;;;19.60;99.90;;;;;;5062551;28;20514;-74
2022/10/21 12:41:33;;;;;;;242.87;230.20;;;19.40;99.90;;;;;;5052428;28;20179;-75
2022/10/21 12:44:02;;;;;;;119.50;113.40;;;19.20;99.90;;;;;;5053555;28;20607;-71
2022/10/21 12:46:33;;;;;;;16.10;15.00;;;19.10;99.90;;;;;;5053438;28;20571;-75
2022/10/21 12:49:31;;;;;;;28.23;26.60;;;18.90;99.90;;;;;;5052909;28;20204;-77